Terminal Aerodrome Forecast
Issued by NWS Sioux Falls, SD

Home | Current Version | Previous Version | Text Only | Print | Product List | Glossary Off
Versions: 1 2 3 4 5 6 7 8 9 10 11 12 13 14 15 16 17 18 19 20

000
FTUS43 KFSD 010534
TAFHON
TAF
KHON 010534Z 0106/0206 01017G24KT 4SM -SN OVC025
     FM010700 36018G25KT 1 1/2SM -SN OVC015
     FM011400 35017G25KT 4SM -SN OVC015
     FM011900 35017G24KT P6SM SCT020 BKN050
     FM012200 35011KT P6SM SKC
     FM020200 VRB04KT P6SM SKC=

USA.gov is the U.S. government's official web portal to all federal, state and local government web resources and services.